Time;durP1;ratioP1;P1;durP2;ratioP2;P2;SDS_P1;SDS_P2;PMS_P1;PMS_P2;Temp;Humidity;BMP_temperature;BMP_pressure;BME280_temperature;BME280_humidity;BME280_pressure;Samples;Min_cycle;Max_cycle;Signal;HPM_P1;HPM_P2
2021/01/22 00:00:40;;;;;;;;;;;;;;;6.53;100.00;97933.78;4937347;28;20395;-77
2021/01/22 00:03:05;;;;;;;;;;;;;;;6.29;100.00;97924.81;4962538;28;19910;-77
2021/01/22 00:05:31;;;;;;;;;;;;;;;6.53;100.00;97925.00;4932764;28;19914;-76
2021/01/22 00:07:56;;;;;;;;;;;;;;;6.60;100.00;97906.25;4937833;29;19918;-78
2021/01/22 00:10:21;;;;;;;;;;;;;;;6.57;100.00;97905.09;4955479;28;19915;-77
2021/01/22 00:12:47;;;;;;;;;;;;;;;6.63;100.00;97897.41;4925993;29;20398;-78
2021/01/22 00:15:12;;;;;;;;;;;;;;;6.68;100.00;97870.28;4937210;29;19915;-78
2021/01/22 00:17:39;;;;;;;;;;;;;;;6.77;100.00;97874.00;4952352;28;19946;-76
2021/01/22 00:20:05;;;;;;;;;;;;;;;6.69;100.00;97874.44;4933561;29;19914;-78
2021/01/22 00:22:30;;;;;;;;;;;;;;;6.90;100.00;97866.19;4940240;29;19921;-78
2021/01/22 00:24:56;;;;;;;;;;;;;;;6.72;100.00;97844.22;4935905;28;20001;-77
2021/01/22 00:27:21;;;;;;;;;;;;;;;6.67;100.00;97842.78;4937727;29;20383;-78
2021/01/22 00:29:47;;;;;;;;;;;;;;;6.64;100.00;97837.47;4957762;28;19921;-77
2021/01/22 00:32:12;;;;;;;;;;;;;;;6.66;100.00;97835.16;4942426;29;19914;-78
2021/01/22 00:34:37;;;;;;;;;;;;;;;6.65;100.00;97845.06;4913713;28;19915;-78
2021/01/22 00:37:03;;;;;;;;;;;;;;;6.50;100.00;97814.31;4928293;29;19930;-75
2021/01/22 00:39:28;;;;;;;;;;;;;;;6.53;100.00;97800.13;4925951;29;19998;-77
2021/01/22 00:41:53;;;;;;;;;;;;;;;6.64;100.00;97800.78;4927004;28;19918;-77
2021/01/22 00:44:19;;;;;;;;;;;;;;;6.84;100.00;97782.22;4935017;29;19930;-77
2021/01/22 00:46:44;;;;;;;;;;;;;;;6.72;100.00;97801.44;4941113;28;20323;-78
2021/01/22 00:49:10;;;;;;;;;;;;;;;6.77;100.00;97793.78;4925312;28;19930;-77
2021/01/22 00:51:35;;;;;;;;;;;;;;;6.73;100.00;97773.56;4961401;28;19921;-77
2021/01/22 00:54:02;;;;;;;;;;;;;;;6.76;100.00;97765.50;4924672;28;19914;-78
2021/01/22 00:56:34;;;;;;;;;;;;;;;6.89;100.00;97763.06;4926580;28;19949;-76
2021/01/22 00:59:01;;;;;;;;;;;;;;;6.80;100.00;97763.53;4924586;28;19921;-77
2021/01/22 01:01:33;;;;;;;;;;;;;;;6.83;100.00;97743.28;4933589;29;20395;-77
2021/01/22 01:03:59;;;;;;;;;;;;;;;6.76;100.00;97746.78;4941226;28;19918;-77
2021/01/22 01:06:28;;;;;;;;;;;;;;;6.95;100.00;97735.47;4943433;29;20335;-77
2021/01/22 01:08:54;;;;;;;;;;;;;;;6.88;100.00;97729.44;4928690;28;19957;-78
2021/01/22 01:11:46;;;;;;;;;;;;;;;6.86;100.00;97724.50;4947195;28;19913;-78
2021/01/22 01:14:25;;;;;;;;;;;;;;;6.92;100.00;97720.22;4928429;28;19918;-77
2021/01/22 01:16:52;;;;;;;;;;;;;;;7.03;100.00;97717.38;4939557;29;19925;-77
2021/01/22 01:19:18;;;;;;;;;;;;;;;7.08;100.00;97722.31;4946578;28;19922;-77
2021/01/22 01:21:43;;;;;;;;;;;;;;;7.00;100.00;97726.22;4960932;28;19915;-77
2021/01/22 01:24:08;;;;;;;;;;;;;;;7.02;100.00;97719.31;4953951;28;19910;-78
2021/01/22 01:26:34;;;;;;;;;;;;;;;7.10;100.00;97725.34;4925771;29;19914;-77
2021/01/22 01:28:59;;;;;;;;;;;;;;;7.12;100.00;97709.63;4942271;29;19922;-77
2021/01/22 01:31:25;;;;;;;;;;;;;;;7.23;100.00;97697.63;4928198;28;20299;-77
2021/01/22 01:33:50;;;;;;;;;;;;;;;7.33;100.00;97706.66;4935739;29;19918;-77
2021/01/22 01:36:16;;;;;;;;;;;;;;;7.38;100.00;97700.06;4942198;28;19911;-77
2021/01/22 01:38:41;;;;;;;;;;;;;;;7.56;100.00;97708.56;4924717;28;19960;-77
2021/01/22 01:41:06;;;;;;;;;;;;;;;7.51;100.00;97728.53;4963398;28;20691;-78
2021/01/22 01:43:32;;;;;;;;;;;;;;;7.49;100.00;97706.03;4958569;28;19961;-77
2021/01/22 01:45:57;;;;;;;;;;;;;;;7.58;100.00;97700.91;4965872;28;19945;-77
2021/01/22 01:48:23;;;;;;;;;;;;;;;7.69;100.00;97702.22;4959580;28;19922;-77
2021/01/22 01:50:48;;;;;;;;;;;;;;;7.71;100.00;97696.47;4944300;29;20044;-77
2021/01/22 01:53:14;;;;;;;;;;;;;;;7.84;100.00;97697.41;4930587;29;19914;-77
2021/01/22 01:55:40;;;;;;;;;;;;;;;7.73;100.00;97686.09;4951106;28;20370;-77
2021/01/22 01:58:05;;;;;;;;;;;;;;;7.77;100.00;97681.44;4967126;28;19918;-77
2021/01/22 02:00:32;;;;;;;;;;;;;;;7.91;100.00;97686.56;4938150;28;20302;-77
2021/01/22 02:03:00;;;;;;;;;;;;;;;7.84;100.00;97686.69;4940544;29;19914;-77
2021/01/22 02:05:26;;;;;;;;;;;;;;;7.80;100.00;97670.66;4945271;28;20026;-77
2021/01/22 02:07:51;;;;;;;;;;;;;;;7.87;100.00;97665.19;4922740;29;20074;-77
2021/01/22 02:10:17;;;;;;;;;;;;;;;7.92;100.00;97661.28;4945150;29;19914;-77
2021/01/22 02:12:43;;;;;;;;;;;;;;;7.94;100.00;97657.03;4924090;28;20295;-78
2021/01/22 02:15:11;;;;;;;;;;;;;;;8.05;100.00;97654.16;4935791;29;20000;-77
2021/01/22 02:17:37;;;;;;;;;;;;;;;8.09;100.00;97646.81;4955060;28;19919;-77
2021/01/22 02:20:08;;;;;;;;;;;;;;;8.17;100.00;97650.84;4946007;28;19914;-77
2021/01/22 02:22:34;;;;;;;;;;;;;;;8.07;100.00;97652.56;4937649;28;19978;-77
2021/01/22 02:25:00;;;;;;;;;;;;;;;8.15;100.00;97647.81;4945207;28;19913;-78
2021/01/22 02:27:26;;;;;;;;;;;;;;;8.21;100.00;97640.81;4944332;28;19922;-77
2021/01/22 02:29:51;;;;;;;;;;;;;;;8.28;100.00;97640.72;4945689;28;19922;-77
2021/01/22 02:32:17;;;;;;;;;;;;;;;8.15;100.00;97637.09;4948188;28;19920;-77
2021/01/22 02:34:44;;;;;;;;;;;;;;;8.18;100.00;97636.28;4955609;28;20005;-77
2021/01/22 02:37:11;;;;;;;;;;;;;;;8.35;100.00;97627.16;4921126;29;19918;-77
2021/01/22 02:39:42;;;;;;;;;;;;;;;8.34;100.00;97620.31;4940624;29;19915;-77
2021/01/22 02:42:08;;;;;;;;;;;;;;;8.47;100.00;97618.50;4936693;29;20572;-77
2021/01/22 02:44:35;;;;;;;;;;;;;;;8.39;100.00;97608.31;4953180;28;19914;-77
2021/01/22 02:47:04;;;;;;;;;;;;;;;8.36;100.00;97614.53;4956727;28;19919;-77
2021/01/22 02:49:29;;;;;;;;;;;;;;;8.38;100.00;97607.56;4952739;28;19918;-77
2021/01/22 02:51:55;;;;;;;;;;;;;;;8.38;100.00;97606.81;4958734;28;20417;-78
2021/01/22 02:54:21;;;;;;;;;;;;;;;8.46;100.00;97597.47;4932656;28;20394;-77
2021/01/22 02:56:46;;;;;;;;;;;;;;;8.41;100.00;97595.25;4942638;29;19914;-77
2021/01/22 02:59:17;;;;;;;;;;;;;;;8.47;100.00;97589.00;4925478;28;20020;-77
2021/01/22 03:02:09;;;;;;;;;;;;;;;8.59;100.00;97583.00;4963449;28;19918;-76
2021/01/22 03:04:36;;;;;;;;;;;;;;;8.53;100.00;97581.97;4921732;28;19955;-76
2021/01/22 03:07:02;;;;;;;;;;;;;;;8.46;100.00;97565.28;4937591;29;19914;-77
2021/01/22 03:09:29;;;;;;;;;;;;;;;8.51;100.00;97567.47;4950004;28;19918;-77
2021/01/22 03:11:56;;;;;;;;;;;;;;;8.66;100.00;97560.59;4951260;28;19937;-77
2021/01/22 03:14:21;;;;;;;;;;;;;;;8.60;100.00;97559.59;4929575;28;19937;-77
2021/01/22 03:16:49;;;;;;;;;;;;;;;8.60;100.00;97557.66;4955087;28;19915;-76
2021/01/22 03:19:14;;;;;;;;;;;;;;;8.55;100.00;97552.06;4954077;28;19915;-77
2021/01/22 03:21:40;;;;;;;;;;;;;;;8.61;100.00;97548.47;4953940;28;19915;-77
2021/01/22 03:24:05;;;;;;;;;;;;;;;8.72;100.00;97545.53;4937046;29;19986;-77
2021/01/22 03:26:34;;;;;;;;;;;;;;;8.71;100.00;97538.66;4922515;28;19914;-76
2021/01/22 03:28:59;;;;;;;;;;;;;;;8.74;100.00;97532.44;4939759;28;20140;-77
2021/01/22 03:31:24;;;;;;;;;;;;;;;8.73;100.00;97536.31;4942694;28;19914;-77
2021/01/22 03:33:51;;;;;;;;;;;;;;;8.83;100.00;97530.69;4935483;29;19919;-77
2021/01/22 03:36:17;;;;;;;;;;;;;;;8.88;100.00;97524.81;4937501;28;19920;-77
2021/01/22 03:38:42;;;;;;;;;;;;;;;8.87;100.00;97531.34;4936628;28;19914;-77
2021/01/22 03:41:08;;;;;;;;;;;;;;;8.87;100.00;97523.31;4934503;29;19952;-76
2021/01/22 03:43:33;;;;;;;;;;;;;;;8.89;100.00;97518.28;4957877;28;19957;-77
2021/01/22 03:45:59;;;;;;;;;;;;;;;9.03;100.00;97512.56;4939217;29;19914;-77
2021/01/22 03:48:24;;;;;;;;;;;;;;;9.04;100.00;97516.75;4952378;28;19965;-77
2021/01/22 03:50:50;;;;;;;;;;;;;;;8.97;100.00;97511.56;4939634;28;19925;-77
2021/01/22 03:53:16;;;;;;;;;;;;;;;9.00;100.00;97507.28;4921756;28;19914;-77
2021/01/22 03:55:41;;;;;;;;;;;;;;;9.04;100.00;97513.31;4954396;28;19921;-77
2021/01/22 03:58:07;;;;;;;;;;;;;;;9.10;100.00;97507.00;4942426;29;19911;-77
2021/01/22 04:00:32;;;;;;;;;;;;;;;9.19;100.00;97505.66;4935458;28;20010;-77
2021/01/22 04:02:58;;;;;;;;;;;;;;;9.15;100.00;97508.44;4937834;28;19914;-77
2021/01/22 04:05:24;;;;;;;;;;;;;;;9.17;100.00;97511.44;4936020;29;19921;-77
2021/01/22 04:07:49;;;;;;;;;;;;;;;9.28;100.00;97511.16;4940825;28;19921;-77
2021/01/22 04:10:14;;;;;;;;;;;;;;;9.29;100.00;97504.63;4941873;29;19925;-77
2021/01/22 04:12:40;;;;;;;;;;;;;;;9.22;100.00;97505.56;4952921;28;19937;-77
2021/01/22 04:15:06;;;;;;;;;;;;;;;9.19;100.00;97525.22;4950824;28;20014;-76
2021/01/22 04:17:31;;;;;;;;;;;;;;;9.20;100.00;97504.47;4917720;29;20353;-77
2021/01/22 04:19:57;;;;;;;;;;;;;;;9.19;100.00;97497.59;4933458;28;19921;-77
2021/01/22 04:22:22;;;;;;;;;;;;;;;9.25;100.00;97503.97;4939339;28;20337;-77
2021/01/22 04:24:48;;;;;;;;;;;;;;;9.22;100.00;97504.78;4930477;29;19918;-77
2021/01/22 04:27:13;;;;;;;;;;;;;;;9.39;100.00;97498.22;4932974;29;19925;-77
2021/01/22 04:29:40;;;;;;;;;;;;;;;9.36;100.00;97501.75;4940908;28;19926;-77
2021/01/22 04:32:07;;;;;;;;;;;;;;;9.27;100.00;97480.13;4935550;29;20406;-77
2021/01/22 04:34:32;;;;;;;;;;;;;;;9.28;100.00;97493.13;4952643;28;19914;-77
2021/01/22 04:36:58;;;;;;;;;;;;;;;9.27;100.00;97475.50;4948222;28;20291;-77
2021/01/22 04:39:23;;;;;;;;;;;;;;;9.22;100.00;97481.41;4934069;29;20066;-77
2021/01/22 04:41:49;;;;;;;;;;;;;;;9.21;100.00;97489.88;4936327;29;20149;-77
2021/01/22 04:44:15;;;;;;;;;;;;;;;9.28;100.00;97497.75;4955500;28;20346;-77
2021/01/22 04:46:42;;;;;;;;;;;;;;;9.34;100.00;97549.75;4925006;28;19978;-77
2021/01/22 04:49:08;;;;;;;;;;;;;;;9.36;100.00;97572.34;4920877;28;19918;-76
2021/01/22 04:51:34;;;;;;;;;;;;;;;9.39;100.00;97605.66;4936621;29;20438;-77
2021/01/22 04:54:04;;;;;;;;;;;;;;;9.17;100.00;97624.19;4915125;28;19918;-77
2021/01/22 04:56:31;;;;;;;;;;;;;;;9.04;100.00;97642.13;4933635;28;19925;-77
2021/01/22 04:59:00;;;;;;;;;;;;;;;8.82;100.00;97668.69;4956795;28;20022;-77
2021/01/22 05:01:25;;;;;;;;;;;;;;;8.54;100.00;97679.25;4944062;28;19916;-78
2021/01/22 05:03:52;;;;;;;;;;;;;;;8.29;100.00;97701.19;4945903;28;20005;-77
2021/01/22 05:06:17;;;;;;;;;;;;;;;8.02;100.00;97703.19;4940513;28;20283;-77
2021/01/22 05:08:43;;;;;;;;;;;;;;;7.99;100.00;97704.75;4940565;28;19918;-77
2021/01/22 05:11:08;;;;;;;;;;;;;;;7.75;100.00;97740.00;4928071;28;20335;-78
2021/01/22 05:13:35;;;;;;;;;;;;;;;7.59;100.00;97737.22;4947021;28;19922;-78
2021/01/22 05:16:07;;;;;;;;;;;;;;;7.36;100.00;97750.56;4947293;28;19914;-78
2021/01/22 05:18:33;;;;;;;;;;;;;;;7.25;100.00;97774.81;4955745;28;19965;-77
2021/01/22 05:21:04;;;;;;;;;;;;;;;7.11;100.00;97786.47;4929851;28;19914;-77
2021/01/22 05:23:32;;;;;;;;;;;;;;;7.01;100.00;97784.69;4962861;28;19918;-77
2021/01/22 05:25:59;;;;;;;;;;;;;;;6.89;100.00;97817.28;4930479;28;19914;-77
2021/01/22 05:28:41;;;;;;;;;;;;;;;6.75;100.00;97824.72;4941982;28;19918;-77
2021/01/22 05:31:07;;;;;;;;;;;;;;;6.75;100.00;97846.13;4949111;28;20354;-77
2021/01/22 05:33:33;;;;;;;;;;;;;;;6.51;100.00;97845.22;4947064;28;19980;-77
2021/01/22 05:35:58;;;;;;;;;;;;;;;6.53;100.00;97858.94;4945831;28;19965;-77
2021/01/22 05:38:37;;;;;;;;;;;;;;;6.38;100.00;97871.69;4943981;28;19977;-77
2021/01/22 05:41:05;;;;;;;;;;;;;;;6.35;100.00;97899.19;4926868;28;19965;-77
2021/01/22 05:43:34;;;;;;;;;;;;;;;6.29;100.00;97903.44;4947362;28;19957;-77
2021/01/22 05:46:00;;;;;;;;;;;;;;;6.21;100.00;97901.97;4924890;28;20272;-77
2021/01/22 05:48:28;;;;;;;;;;;;;;;6.17;100.00;97917.28;4928803;28;19949;-77
2021/01/22 05:50:55;;;;;;;;;;;;;;;6.27;100.00;97934.38;4958338;28;19925;-77
2021/01/22 05:53:21;;;;;;;;;;;;;;;6.38;100.00;97957.19;4959043;28;20046;-77
2021/01/22 05:56:06;;;;;;;;;;;;;;;6.20;100.00;97943.19;4938067;28;19921;-76
2021/01/22 05:58:31;;;;;;;;;;;;;;;6.14;100.00;97955.44;4963825;28;19960;-77
2021/01/22 06:01:04;;;;;;;;;;;;;;;6.15;100.00;97966.91;4944092;28;19922;-78
2021/01/22 06:03:29;;;;;;;;;;;;;;;6.07;100.00;97990.22;4936041;28;20411;-76
2021/01/22 06:05:55;;;;;;;;;;;;;;;5.99;100.00;98014.69;4930630;28;19914;-77
2021/01/22 06:08:20;;;;;;;;;;;;;;;5.98;100.00;97981.88;4952958;28;19926;-77
2021/01/22 06:10:45;;;;;;;;;;;;;;;5.97;100.00;97987.59;4943648;28;20335;-77
2021/01/22 06:13:12;;;;;;;;;;;;;;;5.89;100.00;98013.59;4929147;28;20284;-77
2021/01/22 06:15:38;;;;;;;;;;;;;;;5.90;100.00;98014.34;4941124;28;19920;-78
2021/01/22 06:18:04;;;;;;;;;;;;;;;5.90;100.00;98017.03;4935172;28;19915;-77
2021/01/22 06:20:32;;;;;;;;;;;;;;;5.84;100.00;98021.25;4931488;28;19921;-77
2021/01/22 06:23:11;;;;;;;;;;;;;;;5.93;100.00;98024.25;4946599;28;20001;-76
2021/01/22 06:25:36;;;;;;;;;;;;;;;5.88;100.00;98016.66;4930701;28;19921;-77
2021/01/22 06:28:03;;;;;;;;;;;;;;;5.98;100.00;98021.91;4948000;28;19918;-76
2021/01/22 06:30:29;;;;;;;;;;;;;;;5.75;100.00;98039.56;4949875;28;19922;-77
2021/01/22 06:32:57;;;;;;;;;;;;;;;5.86;100.00;98043.75;4939295;28;20370;-77
2021/01/22 06:35:23;;;;;;;;;;;;;;;5.94;100.00;98041.81;4933175;28;19921;-76
2021/01/22 06:37:50;;;;;;;;;;;;;;;5.84;100.00;98066.63;4965335;28;19914;-77
2021/01/22 06:40:18;;;;;;;;;;;;;;;5.95;100.00;98068.13;4943285;28;19922;-77
2021/01/22 06:42:43;;;;;;;;;;;;;;;5.90;100.00;98062.41;4956580;28;19914;-77
2021/01/22 06:45:09;;;;;;;;;;;;;;;5.89;100.00;98055.53;4936312;28;19918;-77
2021/01/22 06:47:34;;;;;;;;;;;;;;;5.84;100.00;98070.06;4934082;28;19926;-77
2021/01/22 06:50:00;;;;;;;;;;;;;;;5.89;100.00;98071.56;4926199;28;19919;-78
2021/01/22 06:52:25;;;;;;;;;;;;;;;5.80;100.00;98069.28;4930714;28;19917;-77
2021/01/22 06:54:57;;;;;;;;;;;;;;;5.72;100.00;98069.69;4955726;28;19957;-77
2021/01/22 06:57:23;;;;;;;;;;;;;;;5.37;100.00;98073.97;4938134;28;19921;-77
2021/01/22 06:59:48;;;;;;;;;;;;;;;5.55;100.00;98091.84;4933596;28;20004;-78
2021/01/22 07:02:32;;;;;;;;;;;;;;;5.77;100.00;98090.66;4948102;28;20008;-78
2021/01/22 07:04:58;;;;;;;;;;;;;;;5.71;100.00;98087.59;4964614;28;19921;-77
2021/01/22 07:07:42;;;;;;;;;;;;;;;5.61;100.00;98103.66;4944915;28;19918;-78
2021/01/22 07:10:08;;;;;;;;;;;;;;;5.53;100.00;98114.31;4926143;28;19921;-79
2021/01/22 07:12:36;;;;;;;;;;;;;;;5.59;100.00;98120.06;4950354;28;19914;-78
2021/01/22 07:15:23;;;;;;;;;;;;;;;5.56;100.00;98120.81;4947156;28;19917;-78
2021/01/22 07:17:49;;;;;;;;;;;;;;;5.53;100.00;98124.25;4931162;28;20298;-78
2021/01/22 07:20:14;;;;;;;;;;;;;;;5.49;100.00;98134.94;4931216;28;20001;-78
2021/01/22 07:22:54;;;;;;;;;;;;;;;5.59;100.00;98141.41;4927019;28;19918;-77
2021/01/22 07:25:30;;;;;;;;;;;;;;;5.55;100.00;98148.66;4921629;28;20295;-79
2021/01/22 07:27:56;;;;;;;;;;;;;;;5.60;100.00;98156.28;4924081;29;19969;-77
2021/01/22 07:30:22;;;;;;;;;;;;;;;5.63;100.00;98144.84;4939353;28;19918;-77
2021/01/22 07:32:49;;;;;;;;;;;;;;;5.59;100.00;98156.66;4930876;28;19997;-78
2021/01/22 07:35:24;;;;;;;;;;;;;;;5.66;100.00;98160.06;4942838;28;19918;-77
2021/01/22 07:37:51;;;;;;;;;;;;;;;5.62;100.00;98153.22;4922711;28;19928;-77
2021/01/22 07:40:17;;;;;;;;;;;;;;;5.70;100.00;98166.19;4945012;28;20481;-77
2021/01/22 07:42:43;;;;;;;;;;;;;;;5.66;100.00;98170.00;4940880;28;19942;-78
2021/01/22 07:45:09;;;;;;;;;;;;;;;5.68;100.00;98179.16;4939719;28;19914;-78
2021/01/22 07:47:35;;;;;;;;;;;;;;;5.63;100.00;98178.78;4941506;29;19914;-78
2021/01/22 07:50:05;;;;;;;;;;;;;;;5.65;100.00;98182.59;4919225;28;19919;-79
2021/01/22 07:52:34;;;;;;;;;;;;;;;5.70;100.00;98187.53;4913619;28;20017;-79
2021/01/22 07:54:59;;;;;;;;;;;;;;;5.66;100.00;98197.44;4939572;29;20556;-78
2021/01/22 07:57:26;;;;;;;;;;;;;;;5.72;100.00;98195.16;4932335;28;19926;-78
2021/01/22 07:59:52;;;;;;;;;;;;;;;5.62;100.00;98201.25;4933883;28;19969;-77
2021/01/22 08:02:18;;;;;;;;;;;;;;;5.55;100.00;98204.72;4917010;28;19914;-77
2021/01/22 08:04:44;;;;;;;;;;;;;;;5.61;100.00;98205.09;4916558;29;19914;-77
2021/01/22 08:07:10;;;;;;;;;;;;;;;5.55;100.00;98207.38;4951747;28;20686;-77
2021/01/22 08:09:35;;;;;;;;;;;;;;;5.66;100.00;98207.34;4923131;28;19978;-77
2021/01/22 08:12:10;;;;;;;;;;;;;;;5.77;100.00;98213.47;4949812;28;20014;-78
2021/01/22 08:14:36;;;;;;;;;;;;;;;5.82;100.00;98200.50;4925629;28;19913;-77
2021/01/22 08:17:05;;;;;;;;;;;;;;;5.68;100.00;98215.75;4922779;28;20000;-77
2021/01/22 08:19:33;;;;;;;;;;;;;;;5.74;100.00;98211.56;4947349;28;20398;-78
2021/01/22 08:22:02;;;;;;;;;;;;;;;5.85;100.00;98205.09;4934256;28;19954;-78
2021/01/22 08:24:27;;;;;;;;;;;;;;;5.79;100.00;98216.53;4920476;28;20014;-77
2021/01/22 08:26:57;;;;;;;;;;;;;;;5.79;100.00;98224.53;4925672;28;20386;-77
2021/01/22 08:29:23;;;;;;;;;;;;;;;5.76;100.00;98223.38;4922647;28;19915;-77
2021/01/22 08:31:48;;;;;;;;;;;;;;;5.76;100.00;98231.41;4938725;28;19920;-78
2021/01/22 08:34:14;;;;;;;;;;;;;;;5.87;100.00;98239.41;4920528;28;20343;-77
2021/01/22 08:36:40;;;;;;;;;;;;;;;5.80;100.00;98250.06;4922046;28;19968;-78
2021/01/22 08:39:05;;;;;;;;;;;;;;;5.81;100.00;98249.69;4934540;28;19918;-78
2021/01/22 08:41:31;;;;;;;;;;;;;;;5.98;100.00;98251.59;4916170;28;19923;-78
2021/01/22 08:43:56;;;;;;;;;;;;;;;5.95;100.00;98265.75;4930816;28;19918;-77
2021/01/22 08:49:13;;;;;;;;;;;;;;;5.96;100.00;98255.81;5084575;23;20214;-78
2021/01/22 08:52:14;;;;;;;;;;;;;;;6.00;100.00;98273.34;4962841;28;20342;-78
2021/01/22 08:54:39;;;;;;;;;;;;;;;5.95;100.00;98270.31;4960591;28;20048;-78
2021/01/22 08:57:05;;;;;;;;;;;;;;;5.90;100.00;98276.81;4972770;28;20412;-77
2021/01/22 08:59:45;;;;;;;;;;;;;;;5.96;100.00;98271.84;4962158;28;19937;-78
2021/01/22 09:02:11;;;;;;;;;;;;;;;5.85;100.00;98279.09;4934387;28;20279;-78
2021/01/22 09:04:37;;;;;;;;;;;;;;;5.96;100.00;98279.88;4960389;28;19913;-78
2021/01/22 09:07:03;;;;;;;;;;;;;;;5.95;100.00;98278.31;4976739;28;19928;-78
2021/01/22 09:09:43;;;;;;;;;;;;;;;6.04;100.00;98284.81;4963495;28;19921;-79
2021/01/22 09:12:12;;;;;;;;;;;;;;;5.97;100.00;98289.38;4953846;28;19928;-79
2021/01/22 09:14:50;;;;;;;;;;;;;;;5.99;100.00;98287.88;4958043;28;19922;-77
2021/01/22 09:17:22;;;;;;;;;;;;;;;6.05;100.00;98291.69;4969975;28;19957;-77
2021/01/22 09:19:51;;;;;;;;;;;;;;;6.03;100.00;98306.56;4958244;28;19963;-77
2021/01/22 09:22:21;;;;;;;;;;;;;;;6.13;100.00;98311.91;4967313;28;19910;-76
2021/01/22 09:24:47;;;;;;;;;;;;;;;6.06;100.00;98306.56;4972364;28;19918;-78
2021/01/22 09:27:12;;;;;;;;;;;;;;;5.99;100.00;98311.91;4943529;28;20017;-78
2021/01/22 09:29:37;;;;;;;;;;;;;;;6.05;100.00;98309.63;4960051;28;19921;-79
2021/01/22 09:32:08;;;;;;;;;;;;;;;6.16;100.00;98299.69;4958331;28;19993;-77
2021/01/22 09:34:34;;;;;;;;;;;;;;;6.24;100.00;98311.88;4959069;28;19917;-78
2021/01/22 09:37:00;;;;;;;;;;;;;;;6.28;100.00;98309.97;4963112;28;19921;-78
2021/01/22 09:39:26;;;;;;;;;;;;;;;6.28;100.00;98312.66;4958688;28;20061;-77
2021/01/22 09:41:51;;;;;;;;;;;;;;;6.31;100.00;98311.88;4942498;28;20003;-77
2021/01/22 09:44:18;;;;;;;;;;;;;;;6.18;100.00;98313.41;4957720;28;20017;-78
2021/01/22 09:46:44;;;;;;;;;;;;;;;6.28;100.00;98318.00;4956687;28;19917;-79
2021/01/22 09:49:09;;;;;;;;;;;;;;;6.26;100.00;98329.06;4960556;28;20025;-77
2021/01/22 09:51:35;;;;;;;;;;;;;;;6.34;100.00;98327.94;4962845;28;19914;-78
2021/01/22 09:54:00;;;;;;;;;;;;;;;6.36;100.00;98335.56;4984774;28;19918;-77
2021/01/22 09:56:26;;;;;;;;;;;;;;;6.44;100.00;98321.03;4956611;28;19910;-77
2021/01/22 09:58:51;;;;;;;;;;;;;;;6.55;100.00;98327.13;4954261;28;19918;-78
2021/01/22 10:01:16;;;;;;;;;;;;;;;6.65;100.00;98325.56;4943992;28;19924;-76
2021/01/22 10:03:42;;;;;;;;;;;;;;;6.58;100.00;98338.97;4964311;28;20028;-77
2021/01/22 10:06:12;;;;;;;;;;;;;;;6.50;100.00;98342.78;4979466;28;20069;-76
2021/01/22 10:08:37;;;;;;;;;;;;;;;6.54;100.00;98341.66;4968595;28;20306;-76
2021/01/22 10:11:03;;;;;;;;;;;;;;;6.60;100.00;98334.75;4946275;28;19913;-77
2021/01/22 10:13:28;;;;;;;;;;;;;;;6.71;100.00;98340.06;4956894;28;20024;-76
2021/01/22 10:15:54;;;;;;;;;;;;;;;6.64;100.00;98351.53;4975173;28;20463;-77
2021/01/22 10:18:20;;;;;;;;;;;;;;;6.94;100.00;98365.25;4953672;28;21150;-77
2021/01/22 10:20:48;;;;;;;;;;;;;;;6.96;100.00;98367.53;4950709;28;19925;-77
2021/01/22 10:23:13;;;;;;;;;;;;;;;7.11;100.00;98358.28;4961648;28;19913;-76
2021/01/22 10:25:39;;;;;;;;;;;;;;;7.38;100.00;98362.00;4962154;28;19920;-77
2021/01/22 10:28:07;;;;;;;;;;;;;;;7.67;100.00;98367.97;4951553;28;19966;-77
2021/01/22 10:30:32;;;;;;;;;;;;;;;7.67;97.94;98370.66;4958368;28;19914;-78
2021/01/22 10:32:58;;;;;;;;;;;;;;;7.56;97.51;98375.31;4946201;28;19960;-78
2021/01/22 10:35:23;;;;;;;;;;;;;;;7.49;98.33;98376.09;4956496;28;19933;-78
2021/01/22 10:37:49;;;;;;;;;;;;;;;7.25;98.70;98383.09;4950679;28;19926;-78
2021/01/22 10:40:14;;;;;;;;;;;;;;;7.09;99.78;98387.34;4940196;28;20337;-78
2021/01/22 10:42:40;;;;;;;;;;;;;;;6.88;100.00;98409.56;4950711;28;19977;-77
2021/01/22 10:45:05;;;;;;;;;;;;;;;6.90;100.00;98398.50;4956153;28;19925;-77
2021/01/22 10:47:31;;;;;;;;;;;;;;;6.99;99.51;98404.19;4952770;28;19922;-79
2021/01/22 10:49:56;;;;;;;;;;;;;;;7.00;99.81;98409.19;4950655;28;20406;-77
2021/01/22 10:52:22;;;;;;;;;;;;;;;6.91;99.91;98402.69;4937101;28;19914;-78
2021/01/22 10:54:47;;;;;;;;;;;;;;;6.96;100.00;98413.78;4951159;28;19918;-77
2021/01/22 10:57:13;;;;;;;;;;;;;;;6.94;99.92;98402.69;4957362;28;20536;-77
2021/01/22 10:59:39;;;;;;;;;;;;;;;6.93;100.00;98417.19;4945044;28;19975;-77
2021/01/22 11:02:08;;;;;;;;;;;;;;;6.94;100.00;98415.28;4955064;28;20402;-77
2021/01/22 11:04:34;;;;;;;;;;;;;;;6.86;100.00;98409.19;4948921;28;19921;-77
2021/01/22 11:06:59;;;;;;;;;;;;;;;7.03;99.53;98415.66;4945688;28;19914;-77
2021/01/22 11:09:25;;;;;;;;;;;;;;;6.98;99.74;98414.16;4943090;28;20429;-77
2021/01/22 11:11:50;;;;;;;;;;;;;;;7.11;99.15;98417.94;4944247;28;19918;-77
2021/01/22 11:14:16;;;;;;;;;;;;;;;7.04;98.10;98428.66;4940611;28;19917;-77
2021/01/22 11:16:41;;;;;;;;;;;;;;;7.11;97.22;98423.28;4956076;28;19914;-78
2021/01/22 11:19:06;;;;;;;;;;;;;;;7.04;97.93;98425.22;4952577;28;19926;-77
2021/01/22 11:21:35;;;;;;;;;;;;;;;7.07;98.19;98433.22;4950774;28;20001;-76
2021/01/22 11:24:00;;;;;;;;;;;;;;;7.13;97.01;98433.59;4937982;28;20310;-78
2021/01/22 11:26:26;;;;;;;;;;;;;;;7.15;97.88;98445.44;4948130;28;19929;-77
2021/01/22 11:28:52;;;;;;;;;;;;;;;7.27;96.61;98444.28;4906193;28;20329;-77
2021/01/22 11:31:17;;;;;;;;;;;;;;;7.12;96.43;98448.88;4955916;28;20357;-78
2021/01/22 11:33:44;;;;;;;;;;;;;;;7.03;97.28;98439.72;4973092;28;19920;-76
2021/01/22 11:36:10;;;;;;;;;;;;;;;7.16;97.20;98446.97;4959824;28;19968;-77
2021/01/22 11:38:36;;;;;;;;;;;;;;;7.19;95.93;98454.22;4953388;28;19918;-77
2021/01/22 11:41:01;;;;;;;;;;;;;;;7.17;95.86;98443.16;4956162;28;19914;-78
2021/01/22 11:43:26;;;;;;;;;;;;;;;7.00;96.52;98441.28;4952589;28;20005;-78
2021/01/22 11:45:52;;;;;;;;;;;;;;;7.10;96.46;98435.13;4957593;28;19914;-76
2021/01/22 11:48:17;;;;;;;;;;;;;;;7.25;96.41;98443.91;4948318;28;19920;-76
2021/01/22 11:50:42;;;;;;;;;;;;;;;7.25;95.76;98438.53;4957765;28;19926;-77
2021/01/22 11:53:08;;;;;;;;;;;;;;;7.22;96.17;98432.03;4952169;28;19965;-77
2021/01/22 11:55:33;;;;;;;;;;;;;;;7.15;95.42;98452.72;4955797;28;19996;-76
2021/01/22 11:57:59;;;;;;;;;;;;;;;7.21;95.70;98456.53;4948522;28;19917;-76
2021/01/22 12:00:24;;;;;;;;;;;;;;;7.18;95.63;98450.00;4952677;28;19980;-77
2021/01/22 12:02:49;;;;;;;;;;;;;;;7.20;95.60;98455.00;4955947;28;19968;-77
2021/01/22 12:05:15;;;;;;;;;;;;;;;6.96;96.02;98464.59;4957679;28;20279;-77
2021/01/22 12:07:40;;;;;;;;;;;;;;;7.20;96.29;98463.03;4954220;28;19914;-77
2021/01/22 12:10:06;;;;;;;;;;;;;;;7.27;95.60;98463.00;4948687;28;19941;-77
2021/01/22 12:12:31;;;;;;;;;;;;;;;7.29;94.25;98466.84;4938429;28;19921;-79
2021/01/22 12:14:57;;;;;;;;;;;;;;;7.28;94.35;98454.59;4948676;28;19937;-77
2021/01/22 12:17:22;;;;;;;;;;;;;;;7.15;94.92;98468.75;4937749;28;20064;-77
2021/01/22 12:19:48;;;;;;;;;;;;;;;7.19;95.62;98474.88;4968403;28;20282;-77
2021/01/22 12:22:13;;;;;;;;;;;;;;;7.32;95.53;98466.03;4952218;28;19929;-78
2021/01/22 12:24:38;;;;;;;;;;;;;;;7.32;95.96;98464.53;4955400;28;19985;-77
2021/01/22 12:27:04;;;;;;;;;;;;;;;7.40;95.91;98466.00;4953639;28;19914;-77
2021/01/22 12:29:29;;;;;;;;;;;;;;;7.58;94.45;98459.47;4961078;28;19917;-78
2021/01/22 12:31:55;;;;;;;;;;;;;;;7.63;94.00;98451.03;4964090;28;19921;-77
2021/01/22 12:34:20;;;;;;;;;;;;;;;7.69;93.15;98457.50;4962504;28;20012;-77
2021/01/22 12:36:47;;;;;;;;;;;;;;;7.68;93.55;98453.31;4948085;28;19953;-77
2021/01/22 12:39:12;;;;;;;;;;;;;;;7.73;91.63;98454.81;4965669;28;19918;-77
2021/01/22 12:41:37;;;;;;;;;;;;;;;7.76;91.95;98456.72;4958612;28;19914;-77
2021/01/22 12:44:03;;;;;;;;;;;;;;;7.92;91.71;98462.38;4956460;28;19949;-77
2021/01/22 12:46:28;;;;;;;;;;;;;;;7.94;89.68;98452.03;4965776;28;19918;-76
2021/01/22 12:48:54;;;;;;;;;;;;;;;7.93;88.88;98455.88;4962682;28;19993;-77